Time;durP1;ratioP1;P1;durP2;ratioP2;P2;SDS_P1;SDS_P2;PMS_P1;PMS_P2;Temp;Humidity;BMP_temperature;BMP_pressure;BME280_temperature;BME280_humidity;BME280_pressure;Samples;Min_cycle;Max_cycle;Signal;HPM_P1;HPM_P2
2022/07/01 00:00:50;;;;;;;8.17;3.50;;;15.80;99.90;;;;;;5074704;28;20177;-80
2022/07/01 00:03:16;;;;;;;3.53;3.23;;;15.70;99.90;;;;;;5074291;28;20192;-79
2022/07/01 00:05:42;;;;;;;4.63;3.10;;;15.60;99.90;;;;;;5074641;28;20238;-79
2022/07/01 00:08:08;;;;;;;5.53;3.47;;;15.60;99.90;;;;;;5074585;28;20224;-81
2022/07/01 00:10:35;;;;;;;6.33;3.33;;;15.70;99.90;;;;;;5074513;28;20180;-80
2022/07/01 00:13:01;;;;;;;5.03;3.13;;;15.60;99.90;;;;;;5074716;28;20274;-79
2022/07/01 00:15:27;;;;;;;5.03;2.90;;;15.70;99.90;;;;;;5074711;28;20208;-79
2022/07/01 00:17:53;;;;;;;3.17;2.87;;;15.70;99.90;;;;;;5074453;28;20167;-80
2022/07/01 00:20:18;;;;;;;6.50;3.33;;;15.80;99.90;;;;;;5074415;28;20176;-80
2022/07/01 00:22:44;;;;;;;2.63;2.43;;;15.80;99.90;;;;;;5074412;28;20199;-80
2022/07/01 00:25:10;;;;;;;3.03;2.57;;;15.80;99.90;;;;;;5074202;28;20199;-81
2022/07/01 00:27:40;;;;;;;4.20;2.60;;;15.60;99.90;;;;;;5075494;28;20302;-79
2022/07/01 00:30:10;;;;;;;3.67;2.57;;;15.80;99.90;;;;;;5073549;28;20735;-79
2022/07/01 00:32:36;;;;;;;4.13;2.60;;;15.60;99.90;;;;;;5073900;28;20668;-80
2022/07/01 00:35:02;;;;;;;6.83;2.87;;;15.60;99.90;;;;;;5075280;28;20169;-79
2022/07/01 00:37:28;;;;;;;6.17;2.90;;;15.50;99.90;;;;;;5074853;28;20173;-79
2022/07/01 00:39:53;;;;;;;5.30;3.13;;;15.50;99.90;;;;;;5074485;28;20528;-80
2022/07/01 00:42:19;;;;;;;3.20;2.90;;;15.60;99.90;;;;;;5074509;28;20196;-80
2022/07/01 00:44:45;;;;;;;7.37;3.60;;;15.60;99.90;;;;;;5074315;28;20197;-79
2022/07/01 00:47:13;;;;;;;3.77;2.63;;;15.60;99.90;;;;;;5074368;28;20260;-79
2022/07/01 00:49:40;;;;;;;7.40;3.00;;;15.60;99.90;;;;;;5074824;28;20184;-78
2022/07/01 00:52:09;;;;;;;3.23;2.90;;;15.60;99.90;;;;;;5073987;28;20169;-79
2022/07/01 00:54:36;;;;;;;4.03;3.10;;;15.50;99.90;;;;;;5074244;28;20183;-80
2022/07/01 00:57:10;;;;;;;3.63;2.87;;;15.50;99.90;;;;;;5073882;28;20564;-80
2022/07/01 00:59:39;;;;;;;5.07;3.10;;;15.60;99.90;;;;;;5074316;28;20259;-80
2022/07/01 01:02:07;;;;;;;7.20;3.10;;;15.50;99.90;;;;;;5073944;28;20169;-80
2022/07/01 01:04:33;;;;;;;6.00;3.13;;;15.60;99.90;;;;;;5073963;28;20672;-79
2022/07/01 01:07:01;;;;;;;8.10;4.10;;;15.40;99.90;;;;;;5073655;28;20271;-79
2022/07/01 01:09:30;;;;;;;6.20;3.20;;;15.40;99.90;;;;;;5073729;28;20581;-80
2022/07/01 01:11:57;;;;;;;5.73;3.73;;;15.50;99.90;;;;;;5073825;28;20629;-80
2022/07/01 01:14:23;;;;;;;4.17;3.47;;;15.50;99.90;;;;;;5073779;28;20180;-80
2022/07/01 01:16:49;;;;;;;4.53;3.93;;;15.50;99.90;;;;;;5073679;28;20217;-79
2022/07/01 01:19:15;;;;;;;8.00;3.70;;;15.50;99.90;;;;;;5074089;28;20212;-79
2022/07/01 01:21:40;;;;;;;9.63;4.47;;;15.60;99.90;;;;;;5074771;28;20172;-81
2022/07/01 01:24:08;;;;;;;5.80;4.50;;;15.60;99.90;;;;;;5073368;28;20193;-80
2022/07/01 01:26:33;;;;;;;6.23;4.43;;;15.50;99.90;;;;;;5073511;28;20529;-78
2022/07/01 01:28:59;;;;;;;6.20;4.30;;;15.70;99.90;;;;;;5074898;28;20170;-79
2022/07/01 01:31:29;;;;;;;6.57;4.30;;;15.70;99.90;;;;;;5073357;28;20578;-80
2022/07/01 01:33:56;;;;;;;5.57;4.70;;;15.70;99.90;;;;;;5072753;28;20258;-79
2022/07/01 01:36:22;;;;;;;6.73;4.77;;;15.60;99.90;;;;;;5073099;28;20172;-80
2022/07/01 01:38:47;;;;;;;7.57;4.90;;;15.60;99.90;;;;;;5073053;28;20227;-81
2022/07/01 01:41:13;;;;;;;7.13;5.10;;;15.70;99.90;;;;;;5072400;28;20172;-80
2022/07/01 01:43:39;;;;;;;9.40;5.50;;;15.60;99.90;;;;;;5073185;28;20660;-80
2022/07/01 01:46:04;;;;;;;6.07;5.47;;;15.60;99.90;;;;;;5072966;28;20279;-79
2022/07/01 01:48:31;;;;;;;9.87;5.63;;;15.60;99.90;;;;;;5073132;28;20165;-80
2022/07/01 01:50:57;;;;;;;6.83;5.37;;;15.50;99.90;;;;;;5072837;28;20238;-80
2022/07/01 01:53:23;;;;;;;7.67;5.83;;;15.60;99.90;;;;;;5073386;28;20192;-80
2022/07/01 01:55:49;;;;;;;8.33;5.60;;;15.60;99.90;;;;;;5070835;22;20221;-86
2022/07/01 01:58:15;;;;;;;8.33;5.40;;;15.50;99.90;;;;;;5053696;28;20185;-86
2022/07/01 02:00:41;;;;;;;7.90;6.30;;;15.60;99.90;;;;;;5053089;28;20171;-86
2022/07/01 02:03:07;;;;;;;9.93;6.40;;;15.60;99.90;;;;;;5054476;28;20529;-86
2022/07/01 02:05:33;;;;;;;11.30;7.67;;;15.70;99.90;;;;;;5053513;28;20205;-86
2022/07/01 02:07:59;;;;;;;17.33;8.63;;;15.60;99.90;;;;;;5053797;28;20186;-85
2022/07/01 02:10:24;;;;;;;12.40;8.03;;;15.70;99.90;;;;;;5070068;22;20315;-82
2022/07/01 02:12:50;;;;;;;12.33;8.50;;;15.60;99.90;;;;;;5074860;28;20192;-84
2022/07/01 02:15:16;;;;;;;12.60;8.63;;;15.60;99.90;;;;;;5075759;28;20544;-83
2022/07/01 02:17:41;;;;;;;9.67;8.03;;;15.70;99.90;;;;;;5074620;28;20200;-82
2022/07/01 02:20:08;;;;;;;15.97;9.60;;;15.70;99.90;;;;;;5074887;28;20231;-83
2022/07/01 02:22:33;;;;;;;13.73;9.83;;;15.60;99.90;;;;;;5076823;28;20193;-83
2022/07/01 02:24:59;;;;;;;13.67;10.23;;;15.50;99.90;;;;;;5076621;28;20218;-83
2022/07/01 02:27:25;;;;;;;21.63;11.63;;;15.50;99.90;;;;;;5076022;28;20180;-84
2022/07/01 02:29:50;;;;;;;14.70;10.67;;;15.60;99.90;;;;;;5076517;28;20168;-83
2022/07/01 02:32:16;;;;;;;17.83;11.30;;;15.60;99.90;;;;;;5076187;28;20192;-83
2022/07/01 02:34:42;;;;;;;16.27;10.93;;;15.70;99.90;;;;;;5075547;28;20184;-82
2022/07/01 02:37:08;;;;;;;17.03;11.50;;;15.70;99.90;;;;;;5077610;28;20695;-83
2022/07/01 02:39:34;;;;;;;16.77;11.80;;;15.60;99.90;;;;;;5077554;28;20182;-83
2022/07/01 02:44:44;;;;;;;20.27;11.83;;;15.60;99.90;;;;;;5077565;28;20212;-83
2022/07/01 02:47:09;;;;;;;18.43;13.00;;;15.60;99.90;;;;;;5075381;28;20175;-83
2022/07/01 02:49:35;;;;;;;19.17;13.57;;;15.70;99.90;;;;;;5074785;28;20185;-83
2022/07/01 02:52:00;;;;;;;23.27;15.17;;;15.50;99.90;;;;;;5074786;28;20169;-83
2022/07/01 02:54:26;;;;;;;23.00;15.57;;;15.60;99.90;;;;;;5075654;28;20177;-82
2022/07/01 02:56:52;;;;;;;21.37;14.70;;;15.60;99.90;;;;;;5074220;28;20181;-82
2022/07/01 02:59:17;;;;;;;23.93;16.03;;;15.50;99.90;;;;;;5076651;28;20183;-83
2022/07/01 03:01:43;;;;;;;25.43;16.10;;;15.60;99.90;;;;;;5078671;28;20514;-83
2022/07/01 03:04:09;;;;;;;24.40;16.60;;;15.60;99.90;;;;;;5075359;28;20766;-83
2022/07/01 03:06:34;;;;;;;24.83;16.73;;;15.70;99.90;;;;;;5074785;28;20259;-83
2022/07/01 03:09:00;;;;;;;25.37;17.30;;;15.50;99.90;;;;;;5075501;28;20192;-82
2022/07/01 03:11:26;;;;;;;27.60;17.50;;;15.50;99.90;;;;;;5076564;28;20186;-83
2022/07/01 03:13:51;;;;;;;25.60;17.70;;;15.50;99.90;;;;;;5075078;28;20252;-83
2022/07/01 03:16:17;;;;;;;28.40;17.23;;;15.40;99.90;;;;;;5076375;28;20214;-83
2022/07/01 03:18:43;;;;;;;26.93;17.60;;;15.50;99.90;;;;;;5075406;28;20169;-83
2022/07/01 03:21:09;;;;;;;27.00;17.50;;;15.50;99.90;;;;;;5074268;28;20169;-83
2022/07/01 03:23:35;;;;;;;25.83;17.43;;;15.30;99.90;;;;;;5072043;28;20255;-83
2022/07/01 03:26:00;;;;;;;29.53;17.47;;;15.40;99.90;;;;;;5072565;28;20607;-83
2022/07/01 03:28:26;;;;;;;24.03;16.40;;;15.50;99.90;;;;;;5072213;28;20195;-83
2022/07/01 03:30:51;;;;;;;26.83;17.47;;;15.50;99.90;;;;;;5071809;28;20298;-82
2022/07/01 03:33:17;;;;;;;30.67;17.40;;;15.60;99.90;;;;;;5070772;28;20246;-83
2022/07/01 03:35:45;;;;;;;27.00;17.37;;;15.30;99.90;;;;;;5071814;28;20176;-83
2022/07/01 03:38:11;;;;;;;29.10;17.40;;;15.30;99.90;;;;;;5071897;28;20639;-83
2022/07/01 03:40:38;;;;;;;26.33;16.80;;;15.30;99.90;;;;;;5071079;28;20303;-83
2022/07/01 03:43:04;;;;;;;28.27;17.23;;;15.30;99.90;;;;;;5071094;28;20229;-82
2022/07/01 03:45:30;;;;;;;26.43;17.17;;;15.40;99.90;;;;;;5071924;28;20211;-82
2022/07/01 03:47:56;;;;;;;28.17;17.77;;;15.40;99.90;;;;;;5072117;28;20252;-82
2022/07/01 03:50:23;;;;;;;27.93;17.03;;;15.20;99.90;;;;;;5071555;28;20173;-82
2022/07/01 03:54:29;;;;;;;28.67;17.67;;;15.30;99.90;;;;;;5071305;28;20254;-83
2022/07/01 03:55:35;;;;;;;30.63;17.43;;;15.20;99.90;;;;;;5072575;28;20187;-83
2022/07/01 03:58:00;;;;;;;26.37;17.03;;;15.20;99.90;;;;;;5071507;28;20172;-83
2022/07/01 04:00:27;;;;;;;28.83;16.93;;;15.20;99.90;;;;;;5071659;28;20537;-82
2022/07/01 04:02:53;;;;;;;29.57;17.83;;;15.20;99.90;;;;;;5071968;28;20197;-82
2022/07/01 04:05:18;;;;;;;30.50;16.77;;;15.10;99.90;;;;;;5073053;28;20200;-82
2022/07/01 04:07:44;;;;;;;27.27;17.07;;;15.30;99.90;;;;;;5075329;28;20175;-82
2022/07/01 04:10:10;;;;;;;31.20;17.73;;;15.10;99.90;;;;;;5075133;28;20537;-82
2022/07/01 04:12:35;;;;;;;29.20;17.63;;;15.10;99.90;;;;;;5074534;28;20188;-82
2022/07/01 04:15:02;;;;;;;31.70;17.90;;;15.10;99.90;;;;;;5075147;28;20641;-82
2022/07/01 04:17:28;;;;;;;34.60;18.07;;;15.20;99.90;;;;;;5075240;28;20674;-82
2022/07/01 04:19:53;;;;;;;33.07;18.47;;;15.10;99.90;;;;;;5074786;28;20172;-82
2022/07/01 04:22:35;;;;;;;31.87;17.97;;;15.10;99.90;;;;;;5075315;28;20204;-82
2022/07/01 04:25:03;;;;;;;37.50;19.27;;;15.10;99.90;;;;;;5077603;28;20204;-82
2022/07/01 04:27:30;;;;;;;36.20;20.10;;;15.00;99.90;;;;;;5077776;28;20199;-82
2022/07/01 04:29:56;;;;;;;37.67;20.73;;;15.10;99.90;;;;;;5078837;28;20218;-82
2022/07/01 04:32:22;;;;;;;41.23;21.13;;;15.00;99.90;;;;;;5080019;28;20279;-82
2022/07/01 04:34:48;;;;;;;38.27;20.70;;;15.10;99.90;;;;;;5078911;28;20204;-82
2022/07/01 04:37:14;;;;;;;40.07;20.33;;;15.10;99.90;;;;;;5078880;28;20242;-82
2022/07/01 04:39:40;;;;;;;38.70;20.70;;;15.10;99.90;;;;;;5079117;28;20201;-82
2022/07/01 04:42:05;;;;;;;38.53;20.83;;;15.10;99.90;;;;;;5078606;28;20536;-80
2022/07/01 04:44:33;;;;;;;38.37;21.33;;;15.10;99.90;;;;;;5077591;28;20215;-81
2022/07/01 04:47:00;;;;;;;46.00;22.67;;;15.10;99.90;;;;;;5077691;28;20176;-80
2022/07/01 04:49:26;;;;;;;42.43;22.27;;;15.10;99.90;;;;;;5077470;28;20186;-80
2022/07/01 04:51:53;;;;;;;42.33;21.43;;;15.10;99.90;;;;;;5077273;28;20179;-79
2022/07/01 04:54:19;;;;;;;44.27;22.97;;;15.10;99.90;;;;;;5077942;28;20199;-79
2022/07/01 04:56:45;;;;;;;44.43;24.03;;;15.30;99.90;;;;;;5077075;28;20180;-80
2022/07/01 04:59:12;;;;;;;44.70;23.53;;;15.30;99.90;;;;;;5077849;28;20176;-79
2022/07/01 05:01:37;;;;;;;45.13;24.33;;;15.20;99.90;;;;;;5077842;28;20181;-79
2022/07/01 05:04:03;;;;;;;42.00;23.10;;;15.30;99.90;;;;;;5077268;28;20254;-80
2022/07/01 05:06:29;;;;;;;42.60;23.83;;;15.20;99.90;;;;;;5077051;28;20173;-80
2022/07/01 05:08:55;;;;;;;41.87;25.07;;;15.20;99.90;;;;;;5077290;28;20173;-80
2022/07/01 05:11:20;;;;;;;41.53;24.67;;;15.10;99.90;;;;;;5076800;28;20575;-79
2022/07/01 05:13:46;;;;;;;40.40;24.53;;;15.10;99.90;;;;;;5079629;28;20189;-80
2022/07/01 05:16:12;;;;;;;34.50;21.63;;;15.10;99.90;;;;;;5078237;28;20521;-80
2022/07/01 05:24:07;;;;;;;37.17;20.80;;;15.10;99.90;;;;;;5077205;28;20249;-79
2022/07/01 05:26:33;;;;;;;33.73;20.40;;;15.00;99.90;;;;;;5075590;28;20184;-81
2022/07/01 05:28:58;;;;;;;28.63;19.20;;;14.90;99.90;;;;;;5073873;28;20181;-79
2022/07/01 05:31:24;;;;;;;29.87;19.37;;;15.10;99.90;;;;;;5073398;28;20196;-78
2022/07/01 05:33:50;;;;;;;31.17;19.37;;;15.00;99.90;;;;;;5073267;28;20204;-78
2022/07/01 05:36:15;;;;;;;33.83;17.90;;;15.10;99.90;;;;;;5073280;28;20177;-78
2022/07/01 05:38:41;;;;;;;32.13;18.53;;;15.00;99.90;;;;;;5072516;28;20607;-78
2022/07/01 05:41:07;;;;;;;32.03;18.27;;;14.90;99.90;;;;;;5072427;28;20226;-78
2022/07/01 05:43:34;;;;;;;31.77;18.97;;;14.90;99.90;;;;;;5072428;28;20211;-79
2022/07/01 05:46:00;;;;;;;30.30;18.23;;;15.00;99.90;;;;;;5073315;28;20668;-79
2022/07/01 05:48:26;;;;;;;29.63;18.37;;;15.00;99.90;;;;;;5073644;28;20173;-77
2022/07/01 05:50:55;;;;;;;30.77;17.00;;;15.00;99.90;;;;;;5071774;28;20169;-79
2022/07/01 05:53:20;;;;;;;26.57;17.07;;;15.10;99.90;;;;;;5073668;28;20195;-81
2022/07/01 05:55:52;;;;;;;29.13;17.97;;;15.00;99.90;;;;;;5074339;28;20184;-81
2022/07/01 05:58:27;;;;;;;29.73;17.43;;;15.10;99.90;;;;;;5075113;28;20176;-81
2022/07/01 06:00:53;;;;;;;25.60;17.40;;;15.20;99.90;;;;;;5073354;28;20205;-79
2022/07/01 06:03:18;;;;;;;28.60;17.33;;;15.40;99.90;;;;;;5073138;28;20291;-79
2022/07/01 06:05:44;;;;;;;26.87;17.40;;;15.40;99.90;;;;;;5072943;28;20200;-80
2022/07/01 06:08:10;;;;;;;23.60;15.77;;;15.50;99.90;;;;;;5073179;28;20513;-80
2022/07/01 06:10:35;;;;;;;25.10;16.37;;;15.70;99.90;;;;;;5073009;28;20187;-80
2022/07/01 06:13:02;;;;;;;23.30;15.50;;;15.60;99.90;;;;;;5074422;28;20539;-81
2022/07/01 06:15:28;;;;;;;26.90;16.70;;;15.70;99.90;;;;;;5074628;28;20204;-80
2022/07/01 06:17:55;;;;;;;24.97;15.57;;;15.40;99.90;;;;;;5072927;28;20219;-80
2022/07/01 06:20:20;;;;;;;25.70;15.17;;;15.50;99.90;;;;;;5072631;28;20203;-80
2022/07/01 06:22:46;;;;;;;22.30;14.23;;;15.50;99.90;;;;;;5073261;28;20562;-80
2022/07/01 06:25:12;;;;;;;25.63;13.97;;;15.30;99.90;;;;;;5079498;28;20291;-81
2022/07/01 06:27:39;;;;;;;24.67;15.00;;;15.50;99.90;;;;;;5078905;28;20172;-80
2022/07/01 06:30:05;;;;;;;25.67;14.57;;;15.50;99.90;;;;;;5077841;28;20186;-80
2022/07/01 06:32:31;;;;;;;22.27;13.87;;;15.50;99.90;;;;;;5076515;28;20215;-81
2022/07/01 06:34:56;;;;;;;24.37;14.17;;;15.70;99.90;;;;;;5076946;28;20177;-81
2022/07/01 06:37:22;;;;;;;23.30;14.40;;;15.60;99.90;;;;;;5077228;28;20241;-80
2022/07/01 06:39:48;;;;;;;21.00;13.60;;;15.70;99.90;;;;;;5077155;28;20717;-81
2022/07/01 06:42:14;;;;;;;20.73;11.80;;;15.70;99.90;;;;;;5076403;28;20698;-80
2022/07/01 06:44:40;;;;;;;20.97;12.80;;;15.80;99.90;;;;;;5076507;28;20202;-80
2022/07/01 06:47:05;;;;;;;22.73;13.50;;;16.00;99.90;;;;;;5077693;28;20512;-80
2022/07/01 06:49:31;;;;;;;23.13;13.70;;;16.00;99.90;;;;;;5071761;28;20175;-78
2022/07/01 06:51:57;;;;;;;20.67;12.93;;;15.90;99.90;;;;;;5071415;28;20165;-78
2022/07/01 06:54:22;;;;;;;19.87;12.50;;;15.90;99.90;;;;;;5072427;28;20329;-79
2022/07/01 06:56:48;;;;;;;22.63;13.57;;;15.80;99.90;;;;;;5072566;28;20679;-78
2022/07/01 06:59:15;;;;;;;20.10;13.33;;;15.70;99.90;;;;;;5072232;28;20242;-78
2022/07/01 07:01:41;;;;;;;18.87;12.27;;;15.70;99.90;;;;;;5071608;28;20223;-78
2022/07/01 07:04:06;;;;;;;31.20;14.20;;;15.70;99.90;;;;;;5072792;28;20203;-78
2022/07/01 07:06:32;;;;;;;21.90;12.90;;;15.60;99.90;;;;;;5072638;28;20182;-78
2022/07/01 07:08:58;;;;;;;22.17;12.50;;;15.60;99.90;;;;;;5071875;28;20192;-78
2022/07/01 07:11:23;;;;;;;24.93;11.77;;;15.60;99.90;;;;;;5072569;28;20659;-79
2022/07/01 07:13:49;;;;;;;20.50;12.87;;;15.50;99.90;;;;;;5073244;28;20188;-79
2022/07/01 07:16:15;;;;;;;18.13;11.20;;;15.70;99.90;;;;;;5071999;28;20204;-79
2022/07/01 07:18:40;;;;;;;19.00;12.23;;;15.60;99.90;;;;;;5070955;28;20655;-78
2022/07/01 07:21:06;;;;;;;18.10;11.10;;;15.50;99.90;;;;;;5070713;28;20251;-79
2022/07/01 07:23:32;;;;;;;21.73;12.13;;;15.50;99.90;;;;;;5070552;28;20204;-78
2022/07/01 07:25:57;;;;;;;19.53;10.73;;;15.60;99.90;;;;;;5070518;28;20258;-78
2022/07/01 07:28:23;;;;;;;21.40;12.17;;;15.50;99.90;;;;;;5070483;28;20210;-78
2022/07/01 07:30:49;;;;;;;18.87;12.07;;;15.50;99.90;;;;;;5070276;28;20205;-77
2022/07/01 07:33:14;;;;;;;17.23;11.23;;;15.70;99.90;;;;;;5069896;28;20571;-78
2022/07/01 07:35:40;;;;;;;19.87;11.60;;;15.70;99.90;;;;;;5070232;28;20180;-77
2022/07/01 07:38:07;;;;;;;18.50;10.83;;;15.70;99.90;;;;;;5070410;28;20213;-78
2022/07/01 07:40:34;;;;;;;20.97;11.27;;;15.70;99.90;;;;;;5072627;28;20651;-77
2022/07/01 07:42:59;;;;;;;19.13;11.07;;;15.70;99.90;;;;;;5073779;28;20196;-78
2022/07/01 07:45:25;;;;;;;19.17;10.80;;;15.80;99.90;;;;;;5074000;28;20207;-79
2022/07/01 07:47:54;;;;;;;18.17;10.83;;;15.90;99.90;;;;;;5075475;28;20175;-78
2022/07/01 07:50:20;;;;;;;18.33;10.43;;;16.00;99.90;;;;;;5074089;28;20179;-79
2022/07/01 07:52:46;;;;;;;17.23;10.60;;;16.20;99.90;;;;;;5074022;28;20221;-79
2022/07/01 07:55:11;;;;;;;17.33;10.53;;;16.10;99.90;;;;;;5084620;22;20430;-83
2022/07/01 07:57:38;;;;;;;18.50;10.30;;;16.10;99.90;;;;;;5055599;28;20198;-81
2022/07/01 08:00:05;;;;;;;15.13;10.33;;;16.20;99.90;;;;;;5054091;28;20171;-81
2022/07/01 08:02:31;;;;;;;17.57;10.70;;;16.10;99.90;;;;;;5054302;28;20165;-82
2022/07/01 08:04:56;;;;;;;17.80;10.80;;;16.00;99.90;;;;;;5054303;28;20746;-82
2022/07/01 08:07:22;;;;;;;16.30;9.97;;;16.20;99.90;;;;;;5054037;28;20175;-82
2022/07/01 08:09:49;;;;;;;16.93;10.03;;;16.30;99.90;;;;;;5076168;22;20217;-81
2022/07/01 08:12:15;;;;;;;21.87;11.03;;;16.60;99.90;;;;;;5057383;28;20197;-82
2022/07/01 08:14:41;;;;;;;13.90;9.37;;;17.00;99.90;;;;;;5056817;28;20177;-82
2022/07/01 08:17:06;;;;;;;16.03;10.43;;;16.80;99.90;;;;;;5057854;28;20177;-83
2022/07/01 08:19:32;;;;;;;16.67;9.47;;;16.70;99.90;;;;;;5060913;28;20582;-80
2022/07/01 08:21:58;;;;;;;13.73;9.67;;;16.90;99.90;;;;;;5074643;28;20173;-79
2022/07/01 08:24:24;;;;;;;15.30;8.83;;;17.20;99.90;;;;;;5075289;28;20335;-79
2022/07/01 08:26:49;;;;;;;13.37;8.80;;;17.10;99.90;;;;;;5071456;28;20177;-78
2022/07/01 08:29:15;;;;;;;12.93;8.10;;;17.20;99.90;;;;;;5068196;28;20645;-81
2022/07/01 08:31:40;;;;;;;10.83;7.27;;;17.40;99.90;;;;;;5066989;28;20196;-80
2022/07/01 08:34:06;;;;;;;13.37;7.30;;;17.30;99.90;;;;;;5068247;28;20261;-79
2022/07/01 08:36:32;;;;;;;10.93;7.30;;;17.70;99.90;;;;;;5070982;28;20157;-78
2022/07/01 08:38:58;;;;;;;16.73;8.03;;;17.80;99.90;;;;;;5071973;28;20223;-81
2022/07/01 08:41:24;;;;;;;11.13;6.83;;;17.70;99.90;;;;;;5073960;28;20225;-82
2022/07/01 08:43:50;;;;;;;19.00;8.33;;;17.80;99.90;;;;;;5073304;28;20193;-82
2022/07/01 08:46:15;;;;;;;10.37;6.47;;;17.90;99.90;;;;;;5071206;28;20216;-84
2022/07/01 08:48:45;;;;;;;10.23;6.37;;;18.00;99.90;;;;;;5073473;28;20184;-83
2022/07/01 08:51:11;;;;;;;9.77;6.37;;;18.20;99.90;;;;;;5075858;28;20209;-82
2022/07/01 08:53:37;;;;;;;11.47;5.83;;;18.20;99.90;;;;;;5075427;28;20190;-80
2022/07/01 08:58:51;;;;;;;9.90;5.83;;;18.30;99.90;;;;;;5075476;28;20153;-83
2022/07/01 09:01:17;;;;;;;9.33;6.57;;;18.00;99.90;;;;;;5073029;28;20173;-79
2022/07/01 09:03:45;;;;;;;10.13;6.07;;;17.90;99.90;;;;;;5067959;28;20232;-78
2022/07/01 09:06:25;;;;;;;12.57;5.93;;;17.80;99.90;;;;;;5071685;28;20201;-81
2022/07/01 09:08:52;;;;;;;12.63;5.00;;;18.10;99.90;;;;;;5061612;28;20737;-82
2022/07/01 09:11:27;;;;;;;9.93;5.13;;;18.40;99.90;;;;;;5054490;28;20185;-83
2022/07/01 09:14:12;;;;;;;9.70;4.50;;;18.30;99.90;;;;;;5054354;28;20188;-83
2022/07/01 09:16:57;;;;;;;6.43;4.37;;;18.30;99.90;;;;;;5055032;28;20173;-81
2022/07/01 09:19:24;;;;;;;10.93;4.37;;;18.60;99.90;;;;;;5052883;28;20177;-79
2022/07/01 09:21:57;;;;;;;6.67;3.90;;;18.80;99.90;;;;;;5054143;28;20161;-80
2022/07/01 09:24:26;;;;;;;5.97;3.33;;;18.60;99.90;;;;;;5051895;28;20561;-77
2022/07/01 09:27:06;;;;;;;5.90;3.53;;;19.10;99.90;;;;;;5052582;28;20666;-79
2022/07/01 09:29:38;;;;;;;6.77;3.60;;;19.50;99.90;;;;;;5052927;28;20162;-81
2022/07/01 09:32:06;;;;;;;7.40;3.23;;;19.30;99.90;;;;;;5052208;28;20169;-80
2022/07/01 09:34:43;;;;;;;5.73;3.20;;;19.00;99.90;;;;;;5052366;28;20199;-82
2022/07/01 09:37:15;;;;;;;8.57;3.40;;;19.50;99.90;;;;;;5051577;28;20173;-80
2022/07/01 09:39:52;;;;;;;7.03;3.10;;;19.70;99.90;;;;;;5052445;28;20771;-79
2022/07/01 09:42:20;;;;;;;7.30;2.80;;;19.90;99.90;;;;;;5051604;28;20196;-80
2022/07/01 09:45:02;;;;;;;8.27;2.53;;;19.50;99.90;;;;;;5052442;28;20197;-79
2022/07/01 09:47:29;;;;;;;7.10;2.57;;;19.80;99.90;;;;;;5052102;28;20219;-80
2022/07/01 09:49:56;;;;;;;5.35;2.53;;;19.40;99.90;;;;;;5051185;28;20169;-83
2022/07/01 09:52:22;;;;;;;5.50;3.17;;;20.40;99.90;;;;;;5051294;28;20732;-82
2022/07/01 09:54:50;;;;;;;5.37;2.80;;;20.00;99.90;;;;;;5051602;28;20173;-83
2022/07/01 09:57:17;;;;;;;3.97;2.92;;;20.10;99.90;;;;;;5051131;28;20169;-81
2022/07/01 09:59:44;;;;;;;3.95;2.65;;;20.60;99.90;;;;;;5050972;28;20173;-81
2022/07/01 10:02:10;;;;;;;3.45;2.78;;;19.50;99.90;;;;;;5049907;28;20173;-79
2022/07/01 10:04:40;;;;;;;5.85;2.95;;;19.70;99.90;;;;;;5052069;28;20683;-82
2022/07/01 10:07:06;;;;;;;6.35;2.72;;;19.70;99.90;;;;;;5051659;28;20176;-78
2022/07/01 10:09:44;;;;;;;3.95;2.70;;;19.80;99.90;;;;;;5049709;28;20615;-79
2022/07/01 10:12:34;;;;;;;5.45;2.60;;;19.70;99.90;;;;;;5051133;28;20292;-80
2022/07/01 10:15:01;;;;;;;6.33;2.50;;;19.30;99.90;;;;;;5031412;28;20178;-78
2022/07/01 10:17:34;;;;;;;2.67;2.30;;;19.40;99.90;;;;;;5031755;28;20716;-79
2022/07/01 10:20:11;;;;;;;2.92;1.85;;;19.70;99.90;;;;;;5047528;28;20174;-77
2022/07/01 10:22:38;;;;;;;8.93;2.53;;;19.50;99.90;;;;;;5051638;28;20208;-78
2022/07/01 10:25:30;;;;;;;5.18;2.38;;;20.10;99.90;;;;;;5050678;28;20318;-81
2022/07/01 10:28:43;;;;;;;5.47;2.38;;;19.70;99.90;;;;;;5051284;28;20202;-79
2022/07/01 10:31:18;;;;;;;4.35;3.00;;;19.90;99.90;;;;;;5032996;28;20213;-79
2022/07/01 10:33:53;;;;;;;3.20;2.50;;;19.50;99.90;;;;;;5052110;28;20200;-79
2022/07/01 10:36:22;;;;;;;4.18;2.42;;;19.80;99.90;;;;;;5051971;28;20179;-80
2022/07/01 10:41:53;;;;;;;3.15;2.40;;;20.10;99.90;;;;;;5052997;28;20650;-80
2022/07/01 10:44:20;;;;;;;4.78;2.35;;;20.50;99.90;;;;;;5050599;28;20201;-80
2022/07/01 10:46:48;;;;;;;5.22;2.42;;;20.50;99.90;;;;;;5051471;28;20198;-81
2022/07/01 10:49:19;;;;;;;3.47;2.13;;;21.00;99.90;;;;;;5051862;28;20560;-80
2022/07/01 10:51:49;;;;;;;4.25;2.40;;;20.80;99.90;;;;;;5051751;28;20169;-81
2022/07/01 10:54:36;;;;;;;2.53;2.17;;;20.40;99.90;;;;;;5051233;28;20563;-81
2022/07/01 10:59:45;;;;;;;2.78;2.22;;;21.20;99.90;;;;;;5053381;28;20169;-81
2022/07/01 11:02:20;;;;;;;3.45;2.33;;;21.50;99.90;;;;;;5050659;28;20166;-79
2022/07/01 11:04:46;;;;;;;9.18;2.30;;;21.90;99.90;;;;;;5051064;28;20219;-80
2022/07/01 11:07:12;;;;;;;7.60;3.10;;;21.60;99.90;;;;;;5050680;28;20173;-81
2022/07/01 11:09:38;;;;;;;4.35;2.22;;;21.00;99.90;;;;;;5051187;28;20664;-82
2022/07/01 11:12:06;;;;;;;7.60;2.60;;;21.40;99.90;;;;;;5051420;28;20177;-81
2022/07/01 11:14:40;;;;;;;2.30;2.10;;;21.90;99.90;;;;;;5055890;28;20170;-81
2022/07/01 11:17:08;;;;;;;5.85;2.20;;;22.10;99.90;;;;;;5057462;28;20218;-81
2022/07/01 11:19:33;;;;;;;3.83;2.00;;;21.50;98.70;;;;;;5057093;28;20541;-83
2022/07/01 11:22:00;;;;;;;3.53;2.00;;;21.50;99.30;;;;;;5058378;28;20173;-80
2022/07/01 11:24:26;;;;;;;3.75;2.20;;;21.30;99.90;;;;;;5057660;28;20227;-80
2022/07/01 11:26:59;;;;;;;2.15;1.90;;;21.40;99.90;;;;;;5058587;28;20581;-80
2022/07/01 11:29:26;;;;;;;3.55;2.20;;;21.20;99.90;;;;;;5059759;28;20176;-81
2022/07/01 11:31:52;;;;;;;4.97;2.13;;;21.40;99.00;;;;;;5057914;28;20165;-81
2022/07/01 11:34:18;;;;;;;2.28;1.80;;;21.30;98.90;;;;;;5058006;28;20243;-81
2022/07/01 11:39:34;;;;;;;3.85;1.50;;;21.40;99.40;;;;;;5057857;28;20223;-80
2022/07/01 11:42:04;;;;;;;6.30;1.85;;;22.00;97.80;;;;;;5056027;28;20174;-80
2022/07/01 11:44:36;;;;;;;2.13;1.92;;;22.40;98.30;;;;;;5057077;28;20252;-81
2022/07/01 11:47:07;;;;;;;4.00;1.83;;;22.20;98.30;;;;;;5057252;28;20272;-80
2022/07/01 11:49:34;;;;;;;4.05;1.77;;;22.70;98.60;;;;;;5057344;28;20165;-78
2022/07/01 11:52:04;;;;;;;3.38;1.88;;;22.60;97.00;;;;;;5054405;28;20165;-81
2022/07/01 11:54:30;;;;;;;3.85;2.40;;;22.10;98.30;;;;;;5053964;28;20659;-78
2022/07/01 11:57:08;;;;;;;3.60;1.80;;;22.20;98.20;;;;;;5053953;28;20694;-81
2022/07/01 11:59:33;;;;;;;4.40;2.20;;;22.50;98.10;;;;;;5054475;28;20177;-83
2022/07/01 12:01:59;;;;;;;3.15;1.67;;;22.40;97.40;;;;;;5055184;28;20181;-81
2022/07/01 12:04:26;;;;;;;2.17;1.63;;;22.40;98.00;;;;;;5055132;28;20182;-81
2022/07/01 12:06:51;;;;;;;2.80;1.67;;;22.10;96.20;;;;;;5055436;28;20533;-80
2022/07/01 12:09:19;;;;;;;1.65;1.45;;;21.90;97.50;;;;;;5055149;28;20176;-81
2022/07/01 12:11:47;;;;;;;2.28;1.50;;;22.10;96.30;;;;;;5055899;28;20756;-80
2022/07/01 12:14:19;;;;;;;2.50;1.52;;;22.30;96.20;;;;;;5055122;28;20222;-81
2022/07/01 12:16:45;;;;;;;4.70;1.70;;;22.60;96.50;;;;;;5055577;28;20169;-80
2022/07/01 12:19:12;;;;;;;3.58;1.88;;;22.80;96.70;;;;;;5053692;28;20199;-79
2022/07/01 12:22:00;;;;;;;4.20;1.88;;;22.50;95.90;;;;;;5054109;28;20180;-81
2022/07/01 12:24:26;;;;;;;4.10;1.50;;;22.50;95.90;;;;;;5055670;28;20169;-81
2022/07/01 12:26:53;;;;;;;5.57;1.45;;;22.20;96.60;;;;;;5055371;28;20196;-79
2022/07/01 12:29:23;;;;;;;4.43;1.40;;;22.90;96.60;;;;;;5055143;28;20192;-82
2022/07/01 12:32:03;;;;;;;3.33;1.60;;;22.80;95.10;;;;;;5054650;28;20170;-80
2022/07/01 12:34:48;;;;;;;5.75;1.80;;;22.30;95.90;;;;;;5055016;28;20196;-81
2022/07/01 12:37:14;;;;;;;3.88;1.40;;;22.20;96.00;;;;;;5054162;28;20170;-80
2022/07/01 12:39:53;;;;;;;4.00;1.20;;;22.10;95.70;;;;;;5054078;28;20183;-79
2022/07/01 12:42:33;;;;;;;3.28;1.50;;;22.40;94.30;;;;;;5054977;28;20189;-80
2022/07/01 12:45:04;;;;;;;2.10;1.30;;;22.50;94.80;;;;;;5054204;28;20204;-79
2022/07/01 12:47:33;;;;;;;1.63;1.20;;;22.80;95.00;;;;;;5054111;28;20169;-80
2022/07/01 12:50:19;;;;;;;1.58;1.25;;;22.50;93.80;;;;;;5055571;28;20219;-81
2022/07/01 12:53:05;;;;;;;1.77;1.13;;;23.00;94.50;;;;;;5054994;28;20197;-79
2022/07/01 12:55:35;;;;;;;1.23;1.02;;;22.70;93.80;;;;;;5062018;28;20173;-81
2022/07/01 12:58:06;;;;;;;1.60;1.10;;;22.90;94.60;;;;;;5064766;28;20173;-80